Terminal Aerodrome Forecast
Issued by NWS

Home | Current Version | Previous Version | Text Only | Print | Product List | Glossary On
Versions: 1 2 3 4 5 6 7 8 9 10 11 12 13
000
FTUS42 TJSJ 160500
TAFJBQ
TAF
TJBQ 160521Z 1606/1706 11005KT P6SM VCSH SCT020
     FM161400 07010KT P6SM FEW025
     FM161730 06011KT P6SM VCTS SCT025CB BKN035
     FM162200 09007KT P6SM SCT030
      AMD NOT SKED TIL 161100=

USA.gov is the U.S. government's official web portal to all federal, state and local government web resources and services.